sensor_id;sensor_type;location;lat;lon;timestamp;temperature;humidity
45715;DHT22;31430;61.646;24.704;2023-02-26T00:02:45;-8.40;99.90
45715;DHT22;31430;61.646;24.704;2023-02-26T00:05:14;-8.50;99.90
45715;DHT22;31430;61.646;24.704;2023-02-26T00:07:41;-8.60;99.90
45715;DHT22;31430;61.646;24.704;2023-02-26T00:10:10;-8.70;99.90
45715;DHT22;31430;61.646;24.704;2023-02-26T00:12:36;-8.90;99.90
45715;DHT22;31430;61.646;24.704;2023-02-26T00:15:03;-9.10;99.90
45715;DHT22;31430;61.646;24.704;2023-02-26T00:18:08;-9.20;99.90
45715;DHT22;31430;61.646;24.704;2023-02-26T00:20:36;-9.20;99.90
45715;DHT22;31430;61.646;24.704;2023-02-26T00:23:02;-9.40;99.90
45715;DHT22;31430;61.646;24.704;2023-02-26T00:25:28;-9.60;99.90
45715;DHT22;31430;61.646;24.704;2023-02-26T00:27:54;-9.70;99.90
45715;DHT22;31430;61.646;24.704;2023-02-26T00:30:20;-9.70;99.90
45715;DHT22;31430;61.646;24.704;2023-02-26T00:32:46;-9.90;99.90
45715;DHT22;31430;61.646;24.704;2023-02-26T00:35:13;-10.00;99.90
45715;DHT22;31430;61.646;24.704;2023-02-26T00:38:01;-10.00;99.90
45715;DHT22;31430;61.646;24.704;2023-02-26T00:40:44;-10.10;99.90
45715;DHT22;31430;61.646;24.704;2023-02-26T00:43:22;-10.30;99.90
45715;DHT22;31430;61.646;24.704;2023-02-26T00:46:07;-10.40;99.90
45715;DHT22;31430;61.646;24.704;2023-02-26T00:51:35;-10.50;99.90
45715;DHT22;31430;61.646;24.704;2023-02-26T00:56:40;-10.60;99.90
45715;DHT22;31430;61.646;24.704;2023-02-26T00:59:05;-10.70;99.90
45715;DHT22;31430;61.646;24.704;2023-02-26T01:01:31;-10.50;99.90
45715;DHT22;31430;61.646;24.704;2023-02-26T01:03:57;-10.50;99.90
45715;DHT22;31430;61.646;24.704;2023-02-26T01:06:27;-10.60;99.90
45715;DHT22;31430;61.646;24.704;2023-02-26T01:11:54;-10.70;99.90
45715;DHT22;31430;61.646;24.704;2023-02-26T01:14:21;-10.70;99.90
45715;DHT22;31430;61.646;24.704;2023-02-26T01:19:32;-10.80;99.90
45715;DHT22;31430;61.646;24.704;2023-02-26T01:25:03;-10.70;99.90
45715;DHT22;31430;61.646;24.704;2023-02-26T01:27:29;-10.80;99.90
45715;DHT22;31430;61.646;24.704;2023-02-26T01:29:55;-10.80;99.90
45715;DHT22;31430;61.646;24.704;2023-02-26T01:32:46;-10.90;99.90
45715;DHT22;31430;61.646;24.704;2023-02-26T01:38:03;-10.80;99.90
45715;DHT22;31430;61.646;24.704;2023-02-26T01:43:34;-10.50;99.90
45715;DHT22;31430;61.646;24.704;2023-02-26T01:46:17;-10.50;99.90
45715;DHT22;31430;61.646;24.704;2023-02-26T01:48:48;-10.50;99.90
45715;DHT22;31430;61.646;24.704;2023-02-26T01:51:14;-10.50;99.90
45715;DHT22;31430;61.646;24.704;2023-02-26T01:53:40;-10.50;99.90
45715;DHT22;31430;61.646;24.704;2023-02-26T01:56:17;-10.50;99.90
45715;DHT22;31430;61.646;24.704;2023-02-26T01:58:46;-10.40;99.90
45715;DHT22;31430;61.646;24.704;2023-02-26T02:01:13;-10.40;99.90
45715;DHT22;31430;61.646;24.704;2023-02-26T02:03:40;-10.40;99.90
45715;DHT22;31430;61.646;24.704;2023-02-26T02:06:17;-10.30;99.90
45715;DHT22;31430;61.646;24.704;2023-02-26T02:08:44;-10.30;99.90
45715;DHT22;31430;61.646;24.704;2023-02-26T02:11:11;-10.30;99.90
45715;DHT22;31430;61.646;24.704;2023-02-26T02:19:41;-10.10;99.90
45715;DHT22;31430;61.646;24.704;2023-02-26T02:30:34;-9.80;99.90
45715;DHT22;31430;61.646;24.704;2023-02-26T02:33:07;-9.70;99.90
45715;DHT22;31430;61.646;24.704;2023-02-26T02:35:43;-9.80;99.90
45715;DHT22;31430;61.646;24.704;2023-02-26T02:38:46;-9.90;99.90
45715;DHT22;31430;61.646;24.704;2023-02-26T02:41:16;-9.90;99.90
45715;DHT22;31430;61.646;24.704;2023-02-26T02:43:44;-10.10;99.90
45715;DHT22;31430;61.646;24.704;2023-02-26T02:46:20;-10.10;99.90
45715;DHT22;31430;61.646;24.704;2023-02-26T02:48:58;-10.20;99.90
45715;DHT22;31430;61.646;24.704;2023-02-26T02:51:36;-10.30;99.90
45715;DHT22;31430;61.646;24.704;2023-02-26T02:54:24;-10.40;99.90
45715;DHT22;31430;61.646;24.704;2023-02-26T02:57:01;-10.60;99.90
45715;DHT22;31430;61.646;24.704;2023-02-26T02:59:32;-10.70;99.90
45715;DHT22;31430;61.646;24.704;2023-02-26T03:02:15;-10.80;99.90
45715;DHT22;31430;61.646;24.704;2023-02-26T03:04:42;-10.90;99.90
45715;DHT22;31430;61.646;24.704;2023-02-26T03:07:09;-11.00;99.90
45715;DHT22;31430;61.646;24.704;2023-02-26T03:09:35;-11.10;99.90
45715;DHT22;31430;61.646;24.704;2023-02-26T03:12:01;-11.10;99.90
45715;DHT22;31430;61.646;24.704;2023-02-26T03:14:27;-11.20;99.90
45715;DHT22;31430;61.646;24.704;2023-02-26T03:24:44;-11.30;99.90
45715;DHT22;31430;61.646;24.704;2023-02-26T03:28:19;-11.40;99.90
45715;DHT22;31430;61.646;24.704;2023-02-26T03:33:27;-11.40;99.90
45715;DHT22;31430;61.646;24.704;2023-02-26T03:38:42;-11.60;99.90
45715;DHT22;31430;61.646;24.704;2023-02-26T03:41:24;-11.80;99.90
45715;DHT22;31430;61.646;24.704;2023-02-26T03:43:59;-11.70;99.90
45715;DHT22;31430;61.646;24.704;2023-02-26T03:46:32;-11.70;99.90
45715;DHT22;31430;61.646;24.704;2023-02-26T03:49:03;-11.70;99.90
45715;DHT22;31430;61.646;24.704;2023-02-26T03:51:31;-11.80;99.90
45715;DHT22;31430;61.646;24.704;2023-02-26T03:54:03;-11.80;99.90
45715;DHT22;31430;61.646;24.704;2023-02-26T03:56:36;-11.80;99.90
45715;DHT22;31430;61.646;24.704;2023-02-26T03:59:04;-12.00;99.90
45715;DHT22;31430;61.646;24.704;2023-02-26T04:01:38;-12.10;99.90
45715;DHT22;31430;61.646;24.704;2023-02-26T04:04:09;-12.10;99.90
45715;DHT22;31430;61.646;24.704;2023-02-26T04:06:37;-12.20;99.90
45715;DHT22;31430;61.646;24.704;2023-02-26T04:09:03;-12.30;99.90
45715;DHT22;31430;61.646;24.704;2023-02-26T04:11:30;-12.30;99.90
45715;DHT22;31430;61.646;24.704;2023-02-26T04:13:56;-12.30;99.90
45715;DHT22;31430;61.646;24.704;2023-02-26T04:16:22;-12.30;99.90
45715;DHT22;31430;61.646;24.704;2023-02-26T04:18:48;-12.30;99.90
45715;DHT22;31430;61.646;24.704;2023-02-26T04:21:16;-12.30;99.90
45715;DHT22;31430;61.646;24.704;2023-02-26T04:23:42;-12.30;99.90
45715;DHT22;31430;61.646;24.704;2023-02-26T04:26:07;-12.30;99.90
45715;DHT22;31430;61.646;24.704;2023-02-26T04:28:33;-12.40;99.90
45715;DHT22;31430;61.646;24.704;2023-02-26T04:31:02;-12.40;99.90
45715;DHT22;31430;61.646;24.704;2023-02-26T04:33:29;-12.40;99.90
45715;DHT22;31430;61.646;24.704;2023-02-26T04:35:56;-12.40;99.90
45715;DHT22;31430;61.646;24.704;2023-02-26T04:38:22;-12.50;99.90
45715;DHT22;31430;61.646;24.704;2023-02-26T04:40:49;-12.50;99.90
45715;DHT22;31430;61.646;24.704;2023-02-26T04:43:15;-12.60;99.90
45715;DHT22;31430;61.646;24.704;2023-02-26T04:45:44;-12.60;99.90
45715;DHT22;31430;61.646;24.704;2023-02-26T04:48:11;-12.50;99.90
45715;DHT22;31430;61.646;24.704;2023-02-26T04:50:36;-12.40;99.90
45715;DHT22;31430;61.646;24.704;2023-02-26T04:53:02;-12.50;99.90
45715;DHT22;31430;61.646;24.704;2023-02-26T04:55:28;-12.50;99.90
45715;DHT22;31430;61.646;24.704;2023-02-26T04:57:54;-12.50;99.90
45715;DHT22;31430;61.646;24.704;2023-02-26T05:00:19;-12.40;99.90
45715;DHT22;31430;61.646;24.704;2023-02-26T05:02:45;-12.50;99.90
45715;DHT22;31430;61.646;24.704;2023-02-26T05:05:11;-12.60;99.90
45715;DHT22;31430;61.646;24.704;2023-02-26T05:07:37;-12.60;99.90
45715;DHT22;31430;61.646;24.704;2023-02-26T05:10:04;-12.70;99.90
45715;DHT22;31430;61.646;24.704;2023-02-26T05:12:31;-12.70;99.90
45715;DHT22;31430;61.646;24.704;2023-02-26T05:14:56;-12.80;99.90
45715;DHT22;31430;61.646;24.704;2023-02-26T05:17:22;-12.90;99.90
45715;DHT22;31430;61.646;24.704;2023-02-26T05:19:48;-12.90;99.90
45715;DHT22;31430;61.646;24.704;2023-02-26T05:22:13;-13.00;99.90
45715;DHT22;31430;61.646;24.704;2023-02-26T05:24:39;-12.90;99.90
45715;DHT22;31430;61.646;24.704;2023-02-26T05:27:05;-13.00;99.90
45715;DHT22;31430;61.646;24.704;2023-02-26T05:29:31;-13.00;99.90
45715;DHT22;31430;61.646;24.704;2023-02-26T05:31:56;-12.90;99.90
45715;DHT22;31430;61.646;24.704;2023-02-26T05:34:22;-12.90;99.90
45715;DHT22;31430;61.646;24.704;2023-02-26T05:36:48;-13.00;99.90
45715;DHT22;31430;61.646;24.704;2023-02-26T05:39:14;-13.10;99.90
45715;DHT22;31430;61.646;24.704;2023-02-26T05:41:39;-13.20;99.90
45715;DHT22;31430;61.646;24.704;2023-02-26T05:44:05;-13.10;99.90
45715;DHT22;31430;61.646;24.704;2023-02-26T05:46:32;-13.10;99.90
45715;DHT22;31430;61.646;24.704;2023-02-26T05:48:58;-13.00;99.90
45715;DHT22;31430;61.646;24.704;2023-02-26T05:51:24;-13.00;99.90
45715;DHT22;31430;61.646;24.704;2023-02-26T05:53:49;-13.00;99.90
45715;DHT22;31430;61.646;24.704;2023-02-26T05:56:15;-12.90;99.90
45715;DHT22;31430;61.646;24.704;2023-02-26T05:58:41;-12.90;99.90
45715;DHT22;31430;61.646;24.704;2023-02-26T06:01:07;-12.90;99.90
45715;DHT22;31430;61.646;24.704;2023-02-26T06:03:32;-12.80;99.90
45715;DHT22;31430;61.646;24.704;2023-02-26T06:05:58;-12.80;99.90
45715;DHT22;31430;61.646;24.704;2023-02-26T06:08:24;-12.70;99.90
45715;DHT22;31430;61.646;24.704;2023-02-26T06:10:50;-12.60;99.90
45715;DHT22;31430;61.646;24.704;2023-02-26T06:13:16;-12.60;99.90
45715;DHT22;31430;61.646;24.704;2023-02-26T06:15:42;-12.60;99.90
45715;DHT22;31430;61.646;24.704;2023-02-26T06:18:08;-12.60;99.90
45715;DHT22;31430;61.646;24.704;2023-02-26T06:20:34;-12.50;99.90
45715;DHT22;31430;61.646;24.704;2023-02-26T06:23:00;-12.60;99.90
45715;DHT22;31430;61.646;24.704;2023-02-26T06:25:25;-12.50;99.90
45715;DHT22;31430;61.646;24.704;2023-02-26T06:27:51;-12.30;99.90
45715;DHT22;31430;61.646;24.704;2023-02-26T06:30:17;-12.10;99.90
45715;DHT22;31430;61.646;24.704;2023-02-26T06:32:43;-12.10;99.90
45715;DHT22;31430;61.646;24.704;2023-02-26T06:35:09;-12.00;99.90
45715;DHT22;31430;61.646;24.704;2023-02-26T06:37:35;-11.90;99.90
45715;DHT22;31430;61.646;24.704;2023-02-26T06:40:01;-12.00;99.90
45715;DHT22;31430;61.646;24.704;2023-02-26T06:42:27;-12.10;99.90
45715;DHT22;31430;61.646;24.704;2023-02-26T06:44:52;-11.90;99.90
45715;DHT22;31430;61.646;24.704;2023-02-26T06:47:18;-11.80;99.90
45715;DHT22;31430;61.646;24.704;2023-02-26T06:49:53;-11.60;99.90
45715;DHT22;31430;61.646;24.704;2023-02-26T06:52:19;-11.50;99.90
45715;DHT22;31430;61.646;24.704;2023-02-26T06:54:44;-11.20;99.90
45715;DHT22;31430;61.646;24.704;2023-02-26T06:57:10;-11.00;99.90
45715;DHT22;31430;61.646;24.704;2023-02-26T06:59:36;-10.80;99.90
45715;DHT22;31430;61.646;24.704;2023-02-26T07:02:01;-10.60;99.90
45715;DHT22;31430;61.646;24.704;2023-02-26T07:04:27;-10.60;99.90
45715;DHT22;31430;61.646;24.704;2023-02-26T07:06:52;-10.50;99.90
45715;DHT22;31430;61.646;24.704;2023-02-26T07:09:18;-10.30;99.90
45715;DHT22;31430;61.646;24.704;2023-02-26T07:11:44;-10.20;99.90
45715;DHT22;31430;61.646;24.704;2023-02-26T07:14:10;-10.20;99.90
45715;DHT22;31430;61.646;24.704;2023-02-26T07:16:36;-10.00;99.90
45715;DHT22;31430;61.646;24.704;2023-02-26T07:19:01;-10.00;99.90
45715;DHT22;31430;61.646;24.704;2023-02-26T07:21:27;-10.00;99.90
45715;DHT22;31430;61.646;24.704;2023-02-26T07:23:53;-9.90;99.90
45715;DHT22;31430;61.646;24.704;2023-02-26T07:26:18;-9.80;99.90
45715;DHT22;31430;61.646;24.704;2023-02-26T07:28:44;-9.70;99.90
45715;DHT22;31430;61.646;24.704;2023-02-26T07:31:10;-9.50;99.90
45715;DHT22;31430;61.646;24.704;2023-02-26T07:33:35;-9.50;99.90
45715;DHT22;31430;61.646;24.704;2023-02-26T07:36:03;-9.60;99.90
45715;DHT22;31430;61.646;24.704;2023-02-26T07:38:29;-9.50;99.90
45715;DHT22;31430;61.646;24.704;2023-02-26T07:40:55;-9.40;99.90
45715;DHT22;31430;61.646;24.704;2023-02-26T07:43:22;-9.30;99.90
45715;DHT22;31430;61.646;24.704;2023-02-26T07:45:51;-9.30;99.90
45715;DHT22;31430;61.646;24.704;2023-02-26T07:48:18;-9.20;99.90
45715;DHT22;31430;61.646;24.704;2023-02-26T07:50:44;-9.20;99.90
45715;DHT22;31430;61.646;24.704;2023-02-26T07:53:10;-9.20;99.90
45715;DHT22;31430;61.646;24.704;2023-02-26T07:55:35;-9.10;99.90
45715;DHT22;31430;61.646;24.704;2023-02-26T07:58:01;-9.00;99.90
45715;DHT22;31430;61.646;24.704;2023-02-26T08:00:27;-8.90;99.90
45715;DHT22;31430;61.646;24.704;2023-02-26T08:02:53;-8.80;99.90
45715;DHT22;31430;61.646;24.704;2023-02-26T08:05:18;-8.80;99.90
45715;DHT22;31430;61.646;24.704;2023-02-26T08:07:44;-8.80;99.90
45715;DHT22;31430;61.646;24.704;2023-02-26T08:10:10;-8.80;99.90
45715;DHT22;31430;61.646;24.704;2023-02-26T08:12:36;-8.80;99.90
45715;DHT22;31430;61.646;24.704;2023-02-26T08:15:02;-8.70;99.90
45715;DHT22;31430;61.646;24.704;2023-02-26T08:17:28;-8.70;99.90
45715;DHT22;31430;61.646;24.704;2023-02-26T08:19:54;-8.70;99.90
45715;DHT22;31430;61.646;24.704;2023-02-26T08:22:20;-8.60;99.90
45715;DHT22;31430;61.646;24.704;2023-02-26T08:24:46;-8.60;99.90
45715;DHT22;31430;61.646;24.704;2023-02-26T08:27:12;-8.50;99.90
45715;DHT22;31430;61.646;24.704;2023-02-26T08:29:37;-8.40;99.90
45715;DHT22;31430;61.646;24.704;2023-02-26T08:32:03;-8.40;99.90
45715;DHT22;31430;61.646;24.704;2023-02-26T08:34:28;-8.30;99.90
45715;DHT22;31430;61.646;24.704;2023-02-26T08:36:54;-8.10;99.90
45715;DHT22;31430;61.646;24.704;2023-02-26T08:39:20;-8.00;99.90
45715;DHT22;31430;61.646;24.704;2023-02-26T08:41:45;-8.00;99.90
45715;DHT22;31430;61.646;24.704;2023-02-26T08:44:11;-7.90;99.90
45715;DHT22;31430;61.646;24.704;2023-02-26T08:46:37;-7.90;99.90
45715;DHT22;31430;61.646;24.704;2023-02-26T08:49:02;-7.80;99.90
45715;DHT22;31430;61.646;24.704;2023-02-26T08:51:28;-7.80;99.90
45715;DHT22;31430;61.646;24.704;2023-02-26T08:53:54;-7.80;99.90
45715;DHT22;31430;61.646;24.704;2023-02-26T08:56:21;-7.70;99.90
45715;DHT22;31430;61.646;24.704;2023-02-26T08:58:47;-7.70;99.90
45715;DHT22;31430;61.646;24.704;2023-02-26T09:01:12;-7.70;99.90
45715;DHT22;31430;61.646;24.704;2023-02-26T09:03:38;-7.60;99.90
45715;DHT22;31430;61.646;24.704;2023-02-26T09:06:04;-7.50;99.90
45715;DHT22;31430;61.646;24.704;2023-02-26T09:08:30;-7.30;99.90
45715;DHT22;31430;61.646;24.704;2023-02-26T09:11:00;-7.30;99.90
45715;DHT22;31430;61.646;24.704;2023-02-26T09:13:26;-7.30;99.90
45715;DHT22;31430;61.646;24.704;2023-02-26T09:15:52;-7.20;99.90
45715;DHT22;31430;61.646;24.704;2023-02-26T09:18:18;-7.10;99.90
45715;DHT22;31430;61.646;24.704;2023-02-26T09:20:44;-7.10;99.90
45715;DHT22;31430;61.646;24.704;2023-02-26T09:23:10;-7.00;99.90
45715;DHT22;31430;61.646;24.704;2023-02-26T09:25:37;-7.00;99.90
45715;DHT22;31430;61.646;24.704;2023-02-26T09:28:02;-6.90;99.90
45715;DHT22;31430;61.646;24.704;2023-02-26T09:30:29;-6.90;99.10
45715;DHT22;31430;61.646;24.704;2023-02-26T09:32:55;-6.80;98.90
45715;DHT22;31430;61.646;24.704;2023-02-26T09:35:20;-6.80;99.20
45715;DHT22;31430;61.646;24.704;2023-02-26T09:37:46;-6.80;99.20
45715;DHT22;31430;61.646;24.704;2023-02-26T09:45:40;-6.60;98.90
45715;DHT22;31430;61.646;24.704;2023-02-26T09:48:09;-6.60;97.90
45715;DHT22;31430;61.646;24.704;2023-02-26T09:50:41;-6.60;98.40
45715;DHT22;31430;61.646;24.704;2023-02-26T09:53:18;-6.60;99.90
45715;DHT22;31430;61.646;24.704;2023-02-26T09:55:45;-6.60;99.70
45715;DHT22;31430;61.646;24.704;2023-02-26T10:06:34;-6.40;98.90
45715;DHT22;31430;61.646;24.704;2023-02-26T10:12:15;-6.30;98.60
45715;DHT22;31430;61.646;24.704;2023-02-26T10:15:02;-6.40;99.30
45715;DHT22;31430;61.646;24.704;2023-02-26T10:17:52;-6.20;99.10
45715;DHT22;31430;61.646;24.704;2023-02-26T10:26:12;-6.10;98.10
45715;DHT22;31430;61.646;24.704;2023-02-26T10:28:43;-6.20;98.10
45715;DHT22;31430;61.646;24.704;2023-02-26T10:31:34;-6.10;98.90
45715;DHT22;31430;61.646;24.704;2023-02-26T10:34:24;-6.10;98.40
45715;DHT22;31430;61.646;24.704;2023-02-26T10:39:32;-6.00;98.40
45715;DHT22;31430;61.646;24.704;2023-02-26T10:42:03;-6.00;97.10
45715;DHT22;31430;61.646;24.704;2023-02-26T10:45:08;-5.90;96.50
45715;DHT22;31430;61.646;24.704;2023-02-26T10:50:22;-6.00;97.50
45715;DHT22;31430;61.646;24.704;2023-02-26T10:52:49;-6.00;97.20
45715;DHT22;31430;61.646;24.704;2023-02-26T11:00:29;-5.70;96.90
45715;DHT22;31430;61.646;24.704;2023-02-26T11:02:55;-5.70;97.00
45715;DHT22;31430;61.646;24.704;2023-02-26T11:05:24;-5.60;96.60
45715;DHT22;31430;61.646;24.704;2023-02-26T11:07:54;-5.70;96.60
45715;DHT22;31430;61.646;24.704;2023-02-26T11:10:23;-5.60;95.90
45715;DHT22;31430;61.646;24.704;2023-02-26T11:12:51;-5.70;95.60
45715;DHT22;31430;61.646;24.704;2023-02-26T11:15:20;-5.60;96.10
45715;DHT22;31430;61.646;24.704;2023-02-26T11:17:48;-5.50;96.60
45715;DHT22;31430;61.646;24.704;2023-02-26T11:20:41;-5.60;96.40
45715;DHT22;31430;61.646;24.704;2023-02-26T11:23:17;-5.50;97.10
45715;DHT22;31430;61.646;24.704;2023-02-26T11:25:45;-5.50;96.20
45715;DHT22;31430;61.646;24.704;2023-02-26T11:28:29;-5.60;95.10
45715;DHT22;31430;61.646;24.704;2023-02-26T11:30:55;-5.60;96.60
45715;DHT22;31430;61.646;24.704;2023-02-26T11:33:37;-5.60;96.20
45715;DHT22;31430;61.646;24.704;2023-02-26T11:36:11;-5.50;96.60
45715;DHT22;31430;61.646;24.704;2023-02-26T11:38:39;-5.30;96.40
45715;DHT22;31430;61.646;24.704;2023-02-26T11:41:06;-5.30;95.50
45715;DHT22;31430;61.646;24.704;2023-02-26T11:43:40;-5.20;96.90
45715;DHT22;31430;61.646;24.704;2023-02-26T11:46:07;-5.20;95.80
45715;DHT22;31430;61.646;24.704;2023-02-26T11:48:46;-5.10;95.60
45715;DHT22;31430;61.646;24.704;2023-02-26T11:51:14;-5.00;93.80
45715;DHT22;31430;61.646;24.704;2023-02-26T11:53:47;-5.00;94.10
45715;DHT22;31430;61.646;24.704;2023-02-26T11:56:19;-5.00;93.90
45715;DHT22;31430;61.646;24.704;2023-02-26T11:58:45;-5.00;94.20
45715;DHT22;31430;61.646;24.704;2023-02-26T12:01:13;-5.00;94.90
45715;DHT22;31430;61.646;24.704;2023-02-26T12:03:44;-5.00;94.80
45715;DHT22;31430;61.646;24.704;2023-02-26T12:06:21;-5.00;95.50
45715;DHT22;31430;61.646;24.704;2023-02-26T12:08:49;-5.00;95.00
45715;DHT22;31430;61.646;24.704;2023-02-26T12:19:45;-5.20;97.40
45715;DHT22;31430;61.646;24.704;2023-02-26T12:22:34;-5.10;96.50
45715;DHT22;31430;61.646;24.704;2023-02-26T12:43:50;-5.20;98.10
45715;DHT22;31430;61.646;24.704;2023-02-26T12:49:28;-5.10;98.10
45715;DHT22;31430;61.646;24.704;2023-02-26T12:54:54;-5.10;98.10
45715;DHT22;31430;61.646;24.704;2023-02-26T13:04:09;-5.10;98.50
45715;DHT22;31430;61.646;24.704;2023-02-26T13:14:46;-5.10;97.60
45715;DHT22;31430;61.646;24.704;2023-02-26T13:17:46;-5.20;98.10
45715;DHT22;31430;61.646;24.704;2023-02-26T13:20:20;-5.20;97.30
45715;DHT22;31430;61.646;24.704;2023-02-26T13:22:53;-5.30;98.20
45715;DHT22;31430;61.646;24.704;2023-02-26T13:27:58;-5.30;98.00
45715;DHT22;31430;61.646;24.704;2023-02-26T13:30:35;-5.30;98.40
45715;DHT22;31430;61.646;24.704;2023-02-26T13:33:03;-5.30;98.30
45715;DHT22;31430;61.646;24.704;2023-02-26T13:35:39;-5.10;97.00
45715;DHT22;31430;61.646;24.704;2023-02-26T13:44:00;-5.20;96.80
45715;DHT22;31430;61.646;24.704;2023-02-26T13:46:38;-5.10;96.20
45715;DHT22;31430;61.646;24.704;2023-02-26T13:51:45;-5.30;96.40
45715;DHT22;31430;61.646;24.704;2023-02-26T14:01:50;-5.30;97.40
45715;DHT22;31430;61.646;24.704;2023-02-26T14:07:15;-5.40;96.50
45715;DHT22;31430;61.646;24.704;2023-02-26T14:22:41;-5.70;99.70
45715;DHT22;31430;61.646;24.704;2023-02-26T14:25:18;-5.70;99.90
45715;DHT22;31430;61.646;24.704;2023-02-26T14:27:47;-5.70;99.90
45715;DHT22;31430;61.646;24.704;2023-02-26T14:30:32;-5.70;99.90
45715;DHT22;31430;61.646;24.704;2023-02-26T14:35:48;-5.80;99.90
45715;DHT22;31430;61.646;24.704;2023-02-26T14:38:28;-5.80;99.90
45715;DHT22;31430;61.646;24.704;2023-02-26T14:44:01;-6.00;99.90
45715;DHT22;31430;61.646;24.704;2023-02-26T14:46:28;-6.00;99.90
45715;DHT22;31430;61.646;24.704;2023-02-26T14:48:54;-6.00;99.90
45715;DHT22;31430;61.646;24.704;2023-02-26T15:02:31;-6.30;99.90
45715;DHT22;31430;61.646;24.704;2023-02-26T15:13:47;-6.90;99.90
45715;DHT22;31430;61.646;24.704;2023-02-26T15:21:20;-7.50;99.90
45715;DHT22;31430;61.646;24.704;2023-02-26T15:23:50;-7.60;99.90
45715;DHT22;31430;61.646;24.704;2023-02-26T15:26:28;-7.70;99.90
45715;DHT22;31430;61.646;24.704;2023-02-26T15:28:56;-7.80;99.90
45715;DHT22;31430;61.646;24.704;2023-02-26T15:31:43;-7.90;99.90
45715;DHT22;31430;61.646;24.704;2023-02-26T15:34:14;-8.00;99.90
45715;DHT22;31430;61.646;24.704;2023-02-26T15:36:49;-8.00;99.90
45715;DHT22;31430;61.646;24.704;2023-02-26T15:39:17;-8.10;99.90
45715;DHT22;31430;61.646;24.704;2023-02-26T15:41:46;-8.10;99.90
45715;DHT22;31430;61.646;24.704;2023-02-26T15:44:15;-8.10;99.90
45715;DHT22;31430;61.646;24.704;2023-02-26T15:46:45;-8.10;99.90
45715;DHT22;31430;61.646;24.704;2023-02-26T15:49:29;-8.30;99.90
45715;DHT22;31430;61.646;24.704;2023-02-26T15:51:59;-8.40;99.90
45715;DHT22;31430;61.646;24.704;2023-02-26T15:54:36;-8.50;99.90
45715;DHT22;31430;61.646;24.704;2023-02-26T15:57:04;-8.60;99.90
45715;DHT22;31430;61.646;24.704;2023-02-26T15:59:31;-8.70;99.90
45715;DHT22;31430;61.646;24.704;2023-02-26T16:02:00;-8.70;99.90
45715;DHT22;31430;61.646;24.704;2023-02-26T16:04:26;-8.70;99.90
45715;DHT22;31430;61.646;24.704;2023-02-26T16:06:54;-8.80;99.90
45715;DHT22;31430;61.646;24.704;2023-02-26T16:09:34;-8.90;99.90
45715;DHT22;31430;61.646;24.704;2023-02-26T16:12:05;-9.00;99.90
45715;DHT22;31430;61.646;24.704;2023-02-26T16:14:36;-9.00;99.90
45715;DHT22;31430;61.646;24.704;2023-02-26T16:17:05;-9.00;99.90
45715;DHT22;31430;61.646;24.704;2023-02-26T16:19:38;-9.10;99.90
45715;DHT22;31430;61.646;24.704;2023-02-26T16:22:41;-9.20;99.90
45715;DHT22;31430;61.646;24.704;2023-02-26T16:28:15;-9.70;99.90
45715;DHT22;31430;61.646;24.704;2023-02-26T16:30:46;-9.90;99.90
45715;DHT22;31430;61.646;24.704;2023-02-26T16:33:15;-10.10;99.90
45715;DHT22;31430;61.646;24.704;2023-02-26T16:35:53;-10.10;99.90
45715;DHT22;31430;61.646;24.704;2023-02-26T16:38:28;-10.30;99.90
45715;DHT22;31430;61.646;24.704;2023-02-26T16:41:04;-10.30;99.90
45715;DHT22;31430;61.646;24.704;2023-02-26T16:46:18;-10.60;99.90
45715;DHT22;31430;61.646;24.704;2023-02-26T16:48:54;-10.70;99.90
45715;DHT22;31430;61.646;24.704;2023-02-26T16:51:22;-10.80;99.90
45715;DHT22;31430;61.646;24.704;2023-02-26T16:53:55;-10.90;99.90
45715;DHT22;31430;61.646;24.704;2023-02-26T16:56:32;-10.90;99.90
45715;DHT22;31430;61.646;24.704;2023-02-26T16:59:05;-10.90;99.90
45715;DHT22;31430;61.646;24.704;2023-02-26T17:01:36;-11.00;99.90
45715;DHT22;31430;61.646;24.704;2023-02-26T17:04:14;-11.00;99.90
45715;DHT22;31430;61.646;24.704;2023-02-26T17:06:41;-11.00;99.90
45715;DHT22;31430;61.646;24.704;2023-02-26T17:09:14;-11.00;99.90
45715;DHT22;31430;61.646;24.704;2023-02-26T17:11:48;-11.10;99.90
45715;DHT22;31430;61.646;24.704;2023-02-26T17:14:20;-11.10;99.90
45715;DHT22;31430;61.646;24.704;2023-02-26T17:16:49;-11.10;99.90
45715;DHT22;31430;61.646;24.704;2023-02-26T17:19:15;-11.10;99.90
45715;DHT22;31430;61.646;24.704;2023-02-26T17:21:44;-11.20;99.90
45715;DHT22;31430;61.646;24.704;2023-02-26T17:24:32;-11.20;99.90
45715;DHT22;31430;61.646;24.704;2023-02-26T17:26:59;-11.20;99.90
45715;DHT22;31430;61.646;24.704;2023-02-26T17:29:34;-11.20;99.90
45715;DHT22;31430;61.646;24.704;2023-02-26T17:32:02;-11.10;99.90
45715;DHT22;31430;61.646;24.704;2023-02-26T17:34:28;-11.00;99.90
45715;DHT22;31430;61.646;24.704;2023-02-26T17:36:55;-11.10;99.90
45715;DHT22;31430;61.646;24.704;2023-02-26T17:39:21;-11.20;99.90
45715;DHT22;31430;61.646;24.704;2023-02-26T17:41:47;-11.20;99.90
45715;DHT22;31430;61.646;24.704;2023-02-26T17:44:13;-11.30;99.90
45715;DHT22;31430;61.646;24.704;2023-02-26T17:46:39;-11.50;99.90
45715;DHT22;31430;61.646;24.704;2023-02-26T17:49:05;-11.60;99.90
45715;DHT22;31430;61.646;24.704;2023-02-26T17:51:30;-11.90;99.90
45715;DHT22;31430;61.646;24.704;2023-02-26T17:53:56;-12.00;99.90
45715;DHT22;31430;61.646;24.704;2023-02-26T17:56:28;-11.90;99.90
45715;DHT22;31430;61.646;24.704;2023-02-26T17:58:55;-12.10;99.90
45715;DHT22;31430;61.646;24.704;2023-02-26T18:01:21;-12.10;99.90
45715;DHT22;31430;61.646;24.704;2023-02-26T18:03:48;-12.30;99.90
45715;DHT22;31430;61.646;24.704;2023-02-26T18:06:14;-12.40;99.90
45715;DHT22;31430;61.646;24.704;2023-02-26T18:08:41;-12.50;99.90
45715;DHT22;31430;61.646;24.704;2023-02-26T18:11:08;-12.60;99.90
45715;DHT22;31430;61.646;24.704;2023-02-26T18:13:36;-12.70;99.90
45715;DHT22;31430;61.646;24.704;2023-02-26T18:16:03;-12.90;99.90
45715;DHT22;31430;61.646;24.704;2023-02-26T18:18:30;-12.90;99.90
45715;DHT22;31430;61.646;24.704;2023-02-26T18:20:56;-13.00;99.90
45715;DHT22;31430;61.646;24.704;2023-02-26T18:23:22;-13.00;99.90
45715;DHT22;31430;61.646;24.704;2023-02-26T18:25:50;-13.10;99.90
45715;DHT22;31430;61.646;24.704;2023-02-26T18:28:20;-13.10;99.90
45715;DHT22;31430;61.646;24.704;2023-02-26T18:30:47;-13.10;99.90
45715;DHT22;31430;61.646;24.704;2023-02-26T18:33:13;-13.10;99.90
45715;DHT22;31430;61.646;24.704;2023-02-26T18:35:45;-13.20;99.90
45715;DHT22;31430;61.646;24.704;2023-02-26T18:38:16;-13.30;99.90
45715;DHT22;31430;61.646;24.704;2023-02-26T18:40:43;-13.20;99.90
45715;DHT22;31430;61.646;24.704;2023-02-26T18:43:10;-13.20;99.90
45715;DHT22;31430;61.646;24.704;2023-02-26T18:45:48;-13.40;99.90